createdAt,value
2018-12-13T00:00:46.145Z,8.30
2018-12-13T00:03:14.620Z,10.53
2018-12-13T00:05:42.972Z,9.17
2018-12-13T00:08:11.344Z,8.13
2018-12-13T00:10:39.677Z,7.77
2018-12-13T00:13:08.061Z,7.27
2018-12-13T00:15:36.420Z,8.20
2018-12-13T00:18:04.880Z,9.03
2018-12-13T00:20:33.549Z,8.53
2018-12-13T00:23:01.884Z,8.13
2018-12-13T00:25:30.229Z,8.80
2018-12-13T00:27:58.596Z,9.47
2018-12-13T00:30:26.930Z,8.70
2018-12-13T00:32:55.312Z,8.63
2018-12-13T00:35:23.637Z,9.73
2018-12-13T00:37:51.980Z,10.17
2018-12-13T00:40:20.673Z,8.93
2018-12-13T00:42:49.048Z,9.90
2018-12-13T00:45:17.409Z,9.67
2018-12-13T00:47:45.847Z,10.33
2018-12-13T00:50:14.204Z,10.80
2018-12-13T00:52:42.572Z,10.57
2018-12-13T00:55:10.937Z,11.27
2018-12-13T00:57:39.400Z,11.90
2018-12-13T01:00:07.988Z,11.70
2018-12-13T01:02:36.694Z,11.63
2018-12-13T01:05:05.264Z,13.17
2018-12-13T01:07:33.605Z,13.43
2018-12-13T01:10:02.268Z,14.13
2018-12-13T01:12:30.622Z,14.53
2018-12-13T01:14:58.948Z,13.43
2018-12-13T01:17:27.354Z,16.33
2018-12-13T01:19:55.729Z,16.13
2018-12-13T01:22:27.821Z,16.50
2018-12-13T01:24:56.228Z,15.93
2018-12-13T01:27:24.575Z,15.47
2018-12-13T01:29:52.941Z,16.13
2018-12-13T01:32:21.300Z,15.20
2018-12-13T01:34:49.637Z,15.50
2018-12-13T01:37:17.976Z,15.63
2018-12-13T01:39:46.600Z,16.70
2018-12-13T01:42:14.940Z,17.90
2018-12-13T01:44:43.327Z,17.63
2018-12-13T01:47:11.684Z,18.00
2018-12-13T01:49:40.022Z,18.63
2018-12-13T01:52:08.364Z,16.27
2018-12-13T01:54:37.036Z,18.20
2018-12-13T01:57:05.500Z,16.73
2018-12-13T01:59:33.912Z,17.93
2018-12-13T02:02:02.532Z,17.67
2018-12-13T02:04:30.884Z,16.67
2018-12-13T02:06:59.281Z,18.83
2018-12-13T02:09:28.135Z,17.40
2018-12-13T02:11:56.485Z,17.47
2018-12-13T02:14:24.843Z,17.97
2018-12-13T02:16:53.317Z,17.33
2018-12-13T02:19:21.677Z,16.47
2018-12-13T02:21:50.028Z,17.87
2018-12-13T02:24:18.669Z,16.00
2018-12-13T02:26:47.028Z,16.27
2018-12-13T02:29:15.309Z,17.07
2018-12-13T02:31:43.910Z,16.80
2018-12-13T02:34:12.185Z,15.13
2018-12-13T02:36:40.448Z,15.73
2018-12-13T02:39:08.740Z,15.97
2018-12-13T02:41:37.102Z,16.33
2018-12-13T02:44:05.370Z,16.63
2018-12-13T02:46:33.667Z,16.73
2018-12-13T02:49:09.291Z,16.30
2018-12-13T02:51:37.649Z,16.00
2018-12-13T02:54:06.047Z,16.07
2018-12-13T02:56:34.311Z,15.83
2018-12-13T02:59:02.588Z,16.00
2018-12-13T03:01:30.868Z,15.20
2018-12-13T03:03:59.162Z,15.03
2018-12-13T03:06:27.444Z,14.97
2018-12-13T03:08:55.698Z,15.23
2018-12-13T03:11:23.987Z,15.37
2018-12-13T03:13:52.245Z,14.57
2018-12-13T03:16:20.540Z,13.80
2018-12-13T03:18:48.829Z,15.17
2018-12-13T03:21:17.116Z,14.13
2018-12-13T03:23:45.380Z,14.30
2018-12-13T03:26:13.680Z,14.53
2018-12-13T03:28:42.238Z,13.63
2018-12-13T03:31:10.507Z,13.27
2018-12-13T03:33:38.868Z,13.40
2018-12-13T03:36:07.373Z,14.33
2018-12-13T03:38:35.669Z,12.83
2018-12-13T03:41:03.931Z,13.07
2018-12-13T03:43:32.317Z,13.10
2018-12-13T03:46:00.693Z,13.47
2018-12-13T03:48:28.992Z,12.47
2018-12-13T03:50:57.271Z,12.60
2018-12-13T03:53:25.539Z,13.77
2018-12-13T03:55:53.926Z,14.20
2018-12-13T03:58:22.194Z,12.30
2018-12-13T04:00:50.468Z,13.40
2018-12-13T04:03:18.740Z,13.20
2018-12-13T04:05:47.042Z,13.87
2018-12-13T04:08:15.307Z,13.50
2018-12-13T04:10:43.586Z,14.43
2018-12-13T04:13:11.973Z,13.27
2018-12-13T04:15:40.267Z,14.03
2018-12-13T04:18:08.625Z,13.60
2018-12-13T04:20:37.223Z,15.57
2018-12-13T04:23:05.592Z,14.73
2018-12-13T04:25:33.831Z,14.80
2018-12-13T04:28:02.249Z,14.53
2018-12-13T04:30:30.527Z,13.63
2018-12-13T04:32:58.823Z,15.40
2018-12-13T04:35:27.125Z,14.40
2018-12-13T04:37:55.408Z,13.90
2018-12-13T04:40:27.126Z,14.13
2018-12-13T04:42:55.397Z,14.13
2018-12-13T04:45:23.693Z,13.77
2018-12-13T04:47:51.989Z,13.83
2018-12-13T04:50:20.258Z,15.43
2018-12-13T04:52:48.545Z,14.93
2018-12-13T04:55:16.812Z,13.73
2018-12-13T04:57:45.083Z,16.33
2018-12-13T05:00:13.384Z,15.37
2018-12-13T05:02:41.649Z,15.07
2018-12-13T05:05:09.912Z,14.53
2018-12-13T05:07:41.726Z,15.27
2018-12-13T05:10:08.621Z,15.80
2018-12-13T05:12:36.933Z,14.93
2018-12-13T05:15:05.596Z,15.63
2018-12-13T05:17:33.898Z,15.23
2018-12-13T05:20:02.241Z,15.53
2018-12-13T05:22:30.517Z,15.87
2018-12-13T05:24:58.793Z,14.80
2018-12-13T05:27:27.175Z,14.00
2018-12-13T05:29:55.457Z,14.43
2018-12-13T05:32:23.826Z,14.70
2018-12-13T05:34:52.111Z,15.10
2018-12-13T05:37:20.401Z,14.73
2018-12-13T05:39:48.700Z,15.70
2018-12-13T05:42:17.024Z,15.87
2018-12-13T05:44:45.361Z,14.93
2018-12-13T05:47:13.881Z,15.47
2018-12-13T05:49:42.177Z,14.00
2018-12-13T05:52:10.569Z,15.33
2018-12-13T05:54:38.833Z,15.93
2018-12-13T05:57:10.173Z,15.43
2018-12-13T05:59:38.438Z,15.63
2018-12-13T06:02:06.782Z,16.27
2018-12-13T06:04:35.045Z,15.70
2018-12-13T06:07:03.337Z,15.33
2018-12-13T06:09:31.621Z,15.50
2018-12-13T06:11:59.892Z,15.87
2018-12-13T06:14:28.812Z,15.93
2018-12-13T06:16:57.097Z,15.93
2018-12-13T06:19:26.807Z,16.93
2018-12-13T06:21:55.299Z,16.37
2018-12-13T06:24:23.561Z,17.10
2018-12-13T06:26:51.865Z,18.33
2018-12-13T06:29:20.159Z,16.90
2018-12-13T06:31:48.431Z,16.77
2018-12-13T06:34:16.717Z,15.50
2018-12-13T06:36:44.992Z,16.23
2018-12-13T06:39:13.280Z,15.70
2018-12-13T06:41:41.561Z,14.07
2018-12-13T06:44:09.902Z,15.10
2018-12-13T06:46:38.166Z,16.83
2018-12-13T06:49:06.457Z,16.03
2018-12-13T06:51:34.783Z,16.03
2018-12-13T06:54:03.089Z,15.03
2018-12-13T06:56:31.400Z,16.07
2018-12-13T06:58:59.681Z,13.90
2018-12-13T07:01:27.970Z,14.50
2018-12-13T07:03:56.272Z,14.57
2018-12-13T07:06:24.605Z,13.63
2018-12-13T07:08:52.920Z,14.70
2018-12-13T07:11:21.209Z,14.07
2018-12-13T07:13:49.500Z,13.67
2018-12-13T07:16:17.794Z,14.93
2018-12-13T07:18:46.107Z,14.60
2018-12-13T07:21:14.394Z,14.73
2018-12-13T07:23:42.721Z,15.07
2018-12-13T07:26:10.991Z,14.27
2018-12-13T07:28:39.450Z,14.93
2018-12-13T07:31:07.794Z,14.20
2018-12-13T07:33:36.104Z,12.97
2018-12-13T07:36:04.506Z,13.50
2018-12-13T07:38:32.875Z,12.93
2018-12-13T07:41:01.265Z,12.23
2018-12-13T07:43:29.548Z,13.33
2018-12-13T07:45:57.921Z,12.63
2018-12-13T07:48:26.204Z,13.23
2018-12-13T07:50:54.479Z,12.43
2018-12-13T07:53:22.854Z,11.93
2018-12-13T07:55:51.149Z,11.80
2018-12-13T07:58:19.422Z,12.63
2018-12-13T08:00:48.083Z,14.27
2018-12-13T08:03:16.357Z,13.97
2018-12-13T08:05:44.633Z,12.57
2018-12-13T08:08:12.929Z,12.93
2018-12-13T08:10:41.216Z,14.50
2018-12-13T08:13:09.485Z,12.70
2018-12-13T08:15:37.900Z,12.60
2018-12-13T08:18:06.218Z,12.37
2018-12-13T08:20:34.501Z,12.40
2018-12-13T08:23:02.778Z,12.60
2018-12-13T08:25:31.086Z,11.77
2018-12-13T08:27:59.433Z,13.23
2018-12-13T08:30:27.746Z,11.57
2018-12-13T08:32:56.037Z,13.00
2018-12-13T08:35:24.705Z,12.57
2018-12-13T08:37:53.010Z,13.00
2018-12-13T08:40:21.284Z,12.07
2018-12-13T08:42:49.558Z,12.50
2018-12-13T08:45:17.876Z,12.03
2018-12-13T08:47:46.167Z,11.40
2018-12-13T08:50:14.529Z,10.17
2018-12-13T08:52:42.899Z,11.97
2018-12-13T08:55:11.173Z,12.80
2018-12-13T08:57:39.478Z,11.43
2018-12-13T09:00:08.671Z,11.37
2018-12-13T09:02:37.027Z,11.90
2018-12-13T09:05:06.313Z,11.50
2018-12-13T09:07:34.591Z,11.40
2018-12-13T09:10:02.861Z,10.30
2018-12-13T09:12:31.144Z,12.47
2018-12-13T09:14:59.461Z,12.17
2018-12-13T09:17:27.723Z,10.83
2018-12-13T09:19:56.001Z,10.43
2018-12-13T09:22:24.460Z,10.87
2018-12-13T09:24:52.834Z,11.37
2018-12-13T09:27:21.119Z,10.27
2018-12-13T09:29:49.494Z,10.87
2018-12-13T09:32:17.814Z,11.30
2018-12-13T09:34:46.393Z,11.37
2018-12-13T09:37:14.652Z,13.47
2018-12-13T09:39:43.006Z,10.67
2018-12-13T09:42:11.633Z,10.83
2018-12-13T09:44:39.963Z,10.70
2018-12-13T09:47:08.224Z,10.57
2018-12-13T09:49:36.555Z,10.50
2018-12-13T09:52:05.428Z,10.73
2018-12-13T09:54:33.911Z,11.67
2018-12-13T09:57:02.266Z,10.20
2018-12-13T09:59:30.717Z,11.43
2018-12-13T10:01:58.998Z,10.63
2018-12-13T10:04:27.321Z,10.83
2018-12-13T10:06:55.606Z,11.53
2018-12-13T10:09:23.926Z,11.00
2018-12-13T10:11:52.272Z,10.70
2018-12-13T10:14:20.706Z,9.70
2018-12-13T10:16:48.977Z,11.50
2018-12-13T10:19:17.314Z,11.53
2018-12-13T10:21:46.221Z,10.80
2018-12-13T10:24:14.657Z,10.40
2018-12-13T10:26:42.992Z,10.60
2018-12-13T10:29:11.274Z,10.57
2018-12-13T10:31:39.911Z,10.30
2018-12-13T10:34:08.488Z,10.43
2018-12-13T10:36:36.930Z,11.13
2018-12-13T10:39:08.391Z,11.03
2018-12-13T10:41:36.962Z,12.00
2018-12-13T10:44:05.252Z,12.23
2018-12-13T10:46:37.316Z,10.93
2018-12-13T10:49:05.715Z,11.00
2018-12-13T10:51:34.001Z,10.53
2018-12-13T10:54:02.314Z,10.33
2018-12-13T10:56:30.615Z,10.43
2018-12-13T10:58:59.029Z,9.20
2018-12-13T11:01:36.437Z,10.57
2018-12-13T11:04:04.919Z,9.60
2018-12-13T11:06:33.401Z,10.20
2018-12-13T11:09:01.660Z,9.57
2018-12-13T11:11:30.018Z,9.60
2018-12-13T11:13:58.307Z,9.10
2018-12-13T11:16:26.644Z,9.40
2018-12-13T11:18:54.878Z,8.73
2018-12-13T11:21:23.177Z,11.83
2018-12-13T11:23:51.429Z,9.00
2018-12-13T11:26:19.746Z,9.03
2018-12-13T11:30:00.265Z,8.77
2018-12-13T11:32:28.565Z,8.70
2018-12-13T11:34:56.986Z,9.10
2018-12-13T11:37:25.239Z,9.73
2018-12-13T11:39:53.574Z,9.37
2018-12-13T11:42:21.868Z,10.10
2018-12-13T11:44:50.281Z,10.30
2018-12-13T11:47:22.411Z,9.13
2018-12-13T11:49:50.827Z,9.97
2018-12-13T11:52:19.249Z,10.33
2018-12-13T11:54:47.665Z,9.93
2018-12-13T11:57:16.059Z,9.27
2018-12-13T11:59:44.406Z,10.00
2018-12-13T12:02:12.666Z,9.63
2018-12-13T12:04:40.927Z,9.60
2018-12-13T12:07:09.368Z,12.80
2018-12-13T12:09:37.650Z,9.13
2018-12-13T12:12:06.041Z,10.13
2018-12-13T12:14:34.313Z,10.30
2018-12-13T12:17:02.803Z,10.63
2018-12-13T12:19:31.204Z,10.23
2018-12-13T12:21:59.477Z,11.10
2018-12-13T12:24:27.811Z,10.73
2018-12-13T12:26:56.100Z,10.77
2018-12-13T12:29:24.421Z,11.50
2018-12-13T12:31:52.816Z,10.97
2018-12-13T12:34:21.096Z,11.60
2018-12-13T12:36:49.506Z,11.90
2018-12-13T12:39:18.781Z,10.77
2018-12-13T12:41:47.404Z,11.70
2018-12-13T12:44:15.758Z,11.97
2018-12-13T12:46:43.996Z,10.97
2018-12-13T12:49:12.390Z,11.27
2018-12-13T12:51:40.787Z,11.93
2018-12-13T12:54:09.301Z,11.87
2018-12-13T12:56:37.729Z,11.73
2018-12-13T12:59:06.129Z,11.13
2018-12-13T13:01:34.375Z,11.73
2018-12-13T13:04:02.682Z,12.00
2018-12-13T13:06:30.962Z,11.23
2018-12-13T13:08:59.269Z,11.33
2018-12-13T13:11:27.957Z,11.47
2018-12-13T13:13:56.275Z,10.50
2018-12-13T13:16:24.556Z,10.17
2018-12-13T13:18:56.230Z,10.10
2018-12-13T13:21:24.494Z,11.93
2018-12-13T13:23:52.813Z,11.33
2018-12-13T13:26:21.229Z,10.80
2018-12-13T13:28:49.704Z,10.20
2018-12-13T13:31:18.023Z,10.23
2018-12-13T13:33:46.278Z,10.47
2018-12-13T13:36:14.555Z,10.20
2018-12-13T13:38:42.844Z,11.80
2018-12-13T13:41:11.133Z,10.60
2018-12-13T13:43:39.760Z,11.63
2018-12-13T13:46:08.060Z,10.33
2018-12-13T13:48:36.518Z,10.37
2018-12-13T13:51:04.837Z,9.70
2018-12-13T13:53:33.132Z,10.43
2018-12-13T13:56:01.742Z,9.77
2018-12-13T13:58:30.005Z,9.30
2018-12-13T14:00:58.337Z,9.63
2018-12-13T14:03:26.646Z,10.60
2018-12-13T14:05:54.946Z,10.77
2018-12-13T14:08:23.252Z,8.93
2018-12-13T14:10:51.565Z,10.80
2018-12-13T14:13:19.837Z,12.70
2018-12-13T14:15:48.137Z,10.83
2018-12-13T14:18:16.412Z,10.03
2018-12-13T14:20:45.013Z,10.93
2018-12-13T14:23:13.417Z,9.20
2018-12-13T14:25:41.790Z,8.90
2018-12-13T14:28:10.131Z,10.47
2018-12-13T14:30:38.564Z,9.73
2018-12-13T14:33:07.089Z,10.33
2018-12-13T14:35:35.451Z,9.57
2018-12-13T14:38:03.817Z,10.93
2018-12-13T14:40:32.148Z,9.40
2018-12-13T14:43:00.545Z,10.10
2018-12-13T14:45:28.798Z,9.30
2018-12-13T14:47:57.119Z,10.40
2018-12-13T14:50:25.386Z,10.40
2018-12-13T14:52:53.633Z,9.50
2018-12-13T14:55:22.086Z,9.97
2018-12-13T14:57:50.462Z,10.80
2018-12-13T15:00:18.809Z,9.70
2018-12-13T15:02:47.236Z,11.07
2018-12-13T15:05:15.968Z,9.67
2018-12-13T15:07:44.225Z,10.77
2018-12-13T15:10:12.505Z,10.43
2018-12-13T15:12:40.814Z,10.20
2018-12-13T15:15:09.174Z,10.33
2018-12-13T15:17:37.542Z,15.60
2018-12-13T15:20:06.333Z,15.53
2018-12-13T15:22:34.919Z,12.20
2018-12-13T15:25:03.497Z,12.63
2018-12-13T15:27:31.825Z,14.43
2018-12-13T15:30:00.169Z,12.20
2018-12-13T15:32:28.442Z,10.07
2018-12-13T15:34:56.721Z,10.97
2018-12-13T15:37:25.039Z,10.37
2018-12-13T15:39:57.219Z,10.33
2018-12-13T15:42:23.632Z,10.63
2018-12-13T15:44:51.891Z,10.87
2018-12-13T15:47:20.176Z,9.77
2018-12-13T15:49:48.625Z,10.20
2018-12-13T15:52:17.114Z,11.27
2018-12-13T15:54:45.439Z,11.63
2018-12-13T15:57:13.695Z,10.97
2018-12-13T15:59:42.297Z,9.53
2018-12-13T16:02:10.867Z,8.77
2018-12-13T16:04:39.121Z,8.63
2018-12-13T16:07:07.377Z,7.57
2018-12-13T16:09:35.778Z,8.47
2018-12-13T16:12:04.040Z,9.70
2018-12-13T16:14:32.400Z,7.57
2018-12-13T16:17:00.883Z,8.00
2018-12-13T16:19:29.259Z,6.87
2018-12-13T16:22:01.371Z,7.20
2018-12-13T16:24:29.740Z,7.70
2018-12-13T16:26:58.062Z,8.60
2018-12-13T16:29:26.329Z,7.93
2018-12-13T16:31:54.610Z,9.07
2018-12-13T16:34:22.897Z,8.43
2018-12-13T16:36:51.168Z,8.30
2018-12-13T16:39:19.469Z,10.97
2018-12-13T16:41:47.730Z,8.43
2018-12-13T16:44:16.070Z,8.87
2018-12-13T16:46:44.732Z,8.30
2018-12-13T16:49:13.042Z,8.43
2018-12-13T16:51:41.314Z,8.33
2018-12-13T16:54:09.593Z,8.60
2018-12-13T16:56:38.157Z,8.43
2018-12-13T16:59:06.590Z,8.63
2018-12-13T17:01:34.958Z,8.40
2018-12-13T17:04:03.225Z,8.10
2018-12-13T17:06:31.524Z,8.60
2018-12-13T17:08:59.896Z,7.93
2018-12-13T17:11:28.305Z,9.00
2018-12-13T17:13:56.589Z,9.57
2018-12-13T17:16:24.929Z,9.80
2018-12-13T17:18:53.213Z,10.73
2018-12-13T17:21:21.508Z,9.70
2018-12-13T17:23:50.329Z,9.10
2018-12-13T17:26:18.674Z,8.57
2018-12-13T17:28:46.942Z,9.53
2018-12-13T17:31:15.241Z,10.33
2018-12-13T17:33:43.543Z,10.60
2018-12-13T17:36:11.820Z,8.93
2018-12-13T17:38:40.093Z,9.50
2018-12-13T17:41:08.358Z,9.40
2018-12-13T17:43:37.153Z,9.90
2018-12-13T17:46:05.525Z,10.40
2018-12-13T17:48:33.815Z,16.70
2018-12-13T17:51:02.177Z,10.10
2018-12-13T17:53:30.428Z,10.20
2018-12-13T17:55:58.693Z,10.60
2018-12-13T17:58:27.078Z,9.90
2018-12-13T18:00:55.447Z,10.63
2018-12-13T18:03:23.708Z,10.77
2018-12-13T18:05:52.421Z,9.90
2018-12-13T18:08:20.698Z,10.07
2018-12-13T18:10:48.970Z,9.27
2018-12-13T18:13:17.266Z,9.57
2018-12-13T18:15:45.542Z,8.67
2018-12-13T18:18:13.848Z,8.53
2018-12-13T18:20:42.141Z,9.20
2018-12-13T18:23:10.432Z,8.40
2018-12-13T18:25:38.706Z,8.53
2018-12-13T18:28:07.022Z,8.30
2018-12-13T18:30:35.268Z,9.20
2018-12-13T18:33:03.554Z,9.43
2018-12-13T18:35:31.878Z,10.77
2018-12-13T18:38:00.149Z,9.10
2018-12-13T18:40:28.433Z,9.50
2018-12-13T18:42:56.780Z,8.73
2018-12-13T18:45:25.056Z,9.47
2018-12-13T18:47:53.309Z,9.10
2018-12-13T18:50:21.600Z,9.87
2018-12-13T18:52:49.905Z,10.13
2018-12-13T18:55:18.157Z,9.60
2018-12-13T18:57:46.534Z,9.73
2018-12-13T19:00:15.104Z,10.50
2018-12-13T19:02:43.510Z,9.83
2018-12-13T19:05:11.772Z,10.67
2018-12-13T19:07:40.037Z,9.40
2018-12-13T19:10:08.327Z,9.43
2018-12-13T19:12:36.625Z,10.00
2018-12-13T19:15:06.432Z,10.77
2018-12-13T19:17:35.294Z,10.13
2018-12-13T19:20:03.924Z,9.57
2018-12-13T19:22:32.184Z,11.07
2018-12-13T19:25:00.494Z,10.47
2018-12-13T19:27:28.764Z,10.57
2018-12-13T19:29:57.039Z,10.77
2018-12-13T19:32:25.340Z,10.83
2018-12-13T19:34:53.705Z,11.17
2018-12-13T19:37:22.020Z,11.00
2018-12-13T19:39:50.333Z,11.20
2018-12-13T19:42:18.613Z,9.77
2018-12-13T19:44:46.902Z,9.90
2018-12-13T19:47:15.519Z,10.97
2018-12-13T19:49:43.790Z,10.60
2018-12-13T19:52:12.169Z,10.10
2018-12-13T19:54:40.438Z,10.87
2018-12-13T19:57:08.816Z,10.87
2018-12-13T19:59:37.118Z,11.53
2018-12-13T20:02:05.408Z,9.93
2018-12-13T20:04:33.913Z,11.30
2018-12-13T20:07:02.255Z,11.27
2018-12-13T20:09:30.868Z,10.57
2018-12-13T20:11:59.157Z,10.97
2018-12-13T20:14:27.477Z,11.27
2018-12-13T20:16:55.760Z,11.63
2018-12-13T20:19:24.046Z,11.30
2018-12-13T20:21:53.385Z,11.10
2018-12-13T20:24:21.685Z,11.37
2018-12-13T20:26:50.173Z,11.17
2018-12-13T20:29:18.584Z,11.23
2018-12-13T20:31:46.870Z,11.40
2018-12-13T20:34:15.148Z,10.87
2018-12-13T20:36:43.405Z,10.70
2018-12-13T20:39:11.685Z,11.23
2018-12-13T20:41:40.009Z,11.40
2018-12-13T20:44:08.335Z,11.17
2018-12-13T20:46:36.709Z,10.80
2018-12-13T20:49:05.017Z,10.27
2018-12-13T20:51:33.390Z,9.37
2018-12-13T20:54:01.681Z,9.67
2018-12-13T20:56:29.973Z,9.10
2018-12-13T20:58:58.303Z,9.77
2018-12-13T21:01:26.593Z,9.13
2018-12-13T21:03:55.137Z,9.57
2018-12-13T21:06:23.473Z,9.23
2018-12-13T21:08:51.788Z,10.57
2018-12-13T21:11:20.381Z,9.17
2018-12-13T21:13:48.781Z,9.70
2018-12-13T21:16:17.172Z,9.77
2018-12-13T21:18:45.445Z,10.47
2018-12-13T21:21:14.089Z,9.03
2018-12-13T21:23:42.441Z,9.57
2018-12-13T21:26:10.710Z,9.23
2018-12-13T21:28:39.041Z,9.20
2018-12-13T21:31:07.345Z,9.97
2018-12-13T21:33:35.612Z,10.30
2018-12-13T21:36:03.918Z,9.47
2018-12-13T21:38:32.332Z,9.00
2018-12-13T21:41:00.604Z,9.23
2018-12-13T21:43:29.291Z,8.33
2018-12-13T21:45:57.588Z,8.43
2018-12-13T21:48:25.851Z,7.67
2018-12-13T21:50:54.321Z,8.60
2018-12-13T21:53:22.934Z,8.93
2018-12-13T21:55:51.252Z,8.80
2018-12-13T21:58:19.545Z,9.07
2018-12-13T22:00:47.814Z,8.97
2018-12-13T22:03:16.397Z,9.07
2018-12-13T22:05:44.680Z,9.50
2018-12-13T22:08:13.283Z,9.50
2018-12-13T22:10:41.598Z,10.30
2018-12-13T22:13:09.873Z,9.70
2018-12-13T22:15:38.231Z,8.77
2018-12-13T22:18:06.522Z,10.13
2018-12-13T22:20:34.810Z,10.07
2018-12-13T22:23:03.089Z,10.03
2018-12-13T22:25:31.754Z,9.43
2018-12-13T22:28:00.097Z,8.60
2018-12-13T22:30:28.505Z,9.60
2018-12-13T22:32:56.849Z,9.57
2018-12-13T22:35:25.113Z,9.77
2018-12-13T22:37:53.709Z,9.87
2018-12-13T22:40:21.976Z,10.73
2018-12-13T22:42:50.249Z,9.83
2018-12-13T22:45:18.619Z,10.43
2018-12-13T22:47:46.874Z,10.33
2018-12-13T22:50:15.171Z,9.50
2018-12-13T22:52:43.464Z,10.00
2018-12-13T22:55:12.148Z,10.37
2018-12-13T22:57:40.593Z,10.10
2018-12-13T23:00:10.660Z,10.60
2018-12-13T23:02:39.201Z,10.50
2018-12-13T23:05:07.484Z,11.50
2018-12-13T23:07:35.857Z,10.23
2018-12-13T23:10:04.545Z,11.67
2018-12-13T23:12:32.817Z,10.70
2018-12-13T23:15:01.095Z,10.80
2018-12-13T23:17:29.456Z,12.30
2018-12-13T23:19:57.737Z,13.00
2018-12-13T23:22:26.047Z,12.60
2018-12-13T23:24:54.473Z,9.87
2018-12-13T23:27:22.752Z,11.63
2018-12-13T23:29:51.029Z,11.97
2018-12-13T23:32:19.304Z,12.97
2018-12-13T23:34:47.581Z,12.23
2018-12-13T23:37:15.848Z,11.37
2018-12-13T23:39:44.125Z,11.60
2018-12-13T23:42:12.770Z,11.60
2018-12-13T23:44:41.087Z,11.20
2018-12-13T23:47:09.424Z,11.93
2018-12-13T23:49:37.749Z,10.43
2018-12-13T23:52:06.438Z,11.00
2018-12-13T23:54:34.805Z,10.87
2018-12-13T23:57:03.097Z,11.20
2018-12-13T23:59:31.369Z,11.77
